Key West Nas /Boca Chica Field/ Airport
KNQX : now visible

Airfield :











YOU CAN JOIN US ON...

 
LOGIN :

Register | Disclaimer

   EN    FR    IT 

 









Legend :    VFR   Marginal VFR   IFR   Intensive IFR   Very Intensive IFR
Visi :
Ceiling :
>= 8 km
>= 3000ft
5 to 8 km
1000 to 3000 ft
1500m to 5 km
500 to 1000 ft
800 to 1500m
200 to 500 ft
< 800m
< 200 ft
Symbols :   Thunderstorms  Fog  Heavy snow  Heavy precipitations  Wind > 20 kt






- Airport Elevation : 6 ft


KNQX - Key West Nas /Boca Chica Field/

CURRENT METAR :
  • 022053Z 12013KT 10SM FEW022 SCT180 BKN250 31/22 A3000 RMK AO2 SLP156 T03110222 58016 $

EXPIRED METARs :
  • 021953Z 11015KT 10SM FEW022 SCT180 BKN250 33/22 A3002 RMK AO2 SLP162 T03280217 $
  • 021853Z 12015KT 10SM FEW022 SCT180 BKN250 33/22 A3003 RMK AO2 SLP168 T03280217 $

TAF TAF KNQX
Valid from the 02 at 15:00 until the 03 at 15:00 UTC


0215/0315 11012KT 9999 SCT022 BKN140 OVC200 QNH2996INS
BECMG 0303/0305 10012KT 9999 VCSH SCT022 SCT140 OVC200 QNH2998INS
FM030800 10012KT 9999 VCTS FEW020CB SCT022 BKN140 OVC200 QNH3001INS
TEMPO 0309/0314 4800 SHRA BKN022CB T30/0219Z T28/0310Z FN20027
KZMA FIR / North America



MET'MAP, your aeronautical weather chart ! - Copyright ORBIFLY December 2007 - Disclaimer

ORBIFLY MET'MAP TEAM :

Programming & Development : Alexandra Zaïnal
Concept & original design : Baudouin d'Aumeries
Assistance for programming : Marc-Olivier Méhu
Technical & hardware support : Manuel Goepfert

Contact : metmap@orbifly.com




SOURCES & CREDITS :

   NOAA       Earth
Advisory